Aérodrome :
LOGIN :

S'inscrire | Disclaimer

   EN    FR    IT 

 










Légende :    VFR   VFR Marginal   IFR   IFR Intensif   IFR Très Intensif
Visi : 
Plafond : 
>= 8 km
>= 3000ft
5 à 8 km
1000 à 3000 ft
1500m à 5 km
500 à 1000 ft
800 à 1500m
200 à 500 ft
< 800m
< 200 ft
Symboles :   Orages  Brouillard  Fortes neiges  Fortes précipitations  Vent > 20 kt
SIGMETs :   Divers  Orages  Givrage  Turbulence  Onde Orograph.  Cendres Volcan.







- Altitude de l'aérodrome : 44 ft
- Code IATA : SOU
- Voir les cartes d'approche


EGHI - Southampton

DERNIER METAR :
  • 201920Z VRB01KT 9999 SCT024 14/10 Q1015

METARs EXPIRÉS :
  • 201850Z VRB02KT 9999 SCT026 15/11 Q1015
  • 201820Z VRB03KT 9999 SCT026 14/10 Q1015
  • 201750Z 24005KT 200V330 9999 SCT026 14/10 Q1015
  • 201720Z VRB03KT 9999 VCSH FEW012 SCT038 13/10 Q1015
  • 201650Z 22005KT 150V310 9999 5000N SHRA FEW012 SCT035 13/10 Q1015

TAF TAF EGHI
Valide du 20 à 18h jusqu'au 20 à 22h UTC


201655Z 2018/2022 26005KT 9999 SCT030
PROB40
TEMPO 2018/2021 4000 SHRA
ATIS : +44 23 8062 7103
Pas de NOTAMs connus pour ce terrain.



MET'MAP, la Météo Aéronautique d'un coup d'oeil ! - Copyright ORBIFLY Décembre 2007 - Disclaimer

ORBIFLY MET'MAP TEAM :

Programmation & Développement : Alexandra Zaïnal
Conception & Développement : Baudouin d'Aumeries
Co-Programmation & Développement : Marc-Olivier Méhu
Soutien technique & logistique : Manuel Goepfert

Contact : metmap@orbifly.com




SOURCES & CREDITS :

   NOAA